createdAt,value
2019-05-22T00:01:09.180Z,23.94
2019-05-22T00:03:49.396Z,23.94
2019-05-22T00:06:27.375Z,23.94
2019-05-22T00:09:02.306Z,23.95
2019-05-22T00:11:38.149Z,23.95
2019-05-22T00:14:13.828Z,23.94
2019-05-22T00:16:47.910Z,23.95
2019-05-22T00:19:22.830Z,23.96
2019-05-22T00:22:03.083Z,23.97
2019-05-22T00:24:39.182Z,23.96
2019-05-22T00:27:15.033Z,23.95
2019-05-22T00:29:50.437Z,23.96
2019-05-22T00:32:25.677Z,23.94
2019-05-22T00:35:00.410Z,23.95
2019-05-22T00:37:34.867Z,23.94
2019-05-22T00:40:09.840Z,23.93
2019-05-22T00:42:45.827Z,23.92
2019-05-22T00:45:21.318Z,23.94
2019-05-22T00:47:55.429Z,23.94
2019-05-22T00:50:35.417Z,23.93
2019-05-22T00:53:28.322Z,23.95
2019-05-22T00:56:03.919Z,23.93
2019-05-22T00:58:42.671Z,23.94
2019-05-22T01:01:32.814Z,23.94
2019-05-22T01:04:08.848Z,23.93
2019-05-22T01:06:44.039Z,23.94
2019-05-22T01:09:25.895Z,23.94
2019-05-22T01:12:00.582Z,23.94
2019-05-22T01:14:42.382Z,23.95
2019-05-22T01:17:11.699Z,23.95
2019-05-22T01:19:47.775Z,23.94
2019-05-22T01:22:23.371Z,23.93
2019-05-22T01:24:57.001Z,23.94
2019-05-22T01:27:32.713Z,23.94
2019-05-22T01:30:08.437Z,23.94
2019-05-22T01:32:44.846Z,23.94
2019-05-22T01:35:20.457Z,23.94
2019-05-22T01:37:55.105Z,23.94
2019-05-22T01:40:42.585Z,23.94
2019-05-22T01:43:17.848Z,23.93
2019-05-22T01:45:53.620Z,23.93
2019-05-22T01:48:33.577Z,23.91
2019-05-22T01:51:07.435Z,23.94
2019-05-22T01:53:42.389Z,23.93
2019-05-22T01:56:19.076Z,23.93
2019-05-22T01:58:54.047Z,23.93
2019-05-22T02:01:27.800Z,23.92
2019-05-22T02:04:02.114Z,23.92
2019-05-22T02:06:37.384Z,23.92
2019-05-22T02:09:30.943Z,23.92
2019-05-22T02:12:36.386Z,23.92
2019-05-22T02:15:11.393Z,23.92
2019-05-22T02:17:46.704Z,23.91
2019-05-22T02:20:20.939Z,23.92
2019-05-22T02:22:54.701Z,23.93
2019-05-22T02:25:29.081Z,23.93
2019-05-22T02:28:02.795Z,23.92
2019-05-22T02:30:38.617Z,23.91
2019-05-22T02:33:14.180Z,23.91
2019-05-22T02:35:47.839Z,23.91
2019-05-22T02:38:22.444Z,23.92
2019-05-22T02:40:57.362Z,23.91
2019-05-22T02:43:31.899Z,23.91
2019-05-22T02:46:07.134Z,23.91
2019-05-22T02:48:42.408Z,23.91
2019-05-22T02:51:16.390Z,23.90
2019-05-22T02:53:50.102Z,23.90
2019-05-22T02:56:23.794Z,23.90
2019-05-22T02:58:58.054Z,23.90
2019-05-22T03:01:31.715Z,23.89
2019-05-22T03:04:07.848Z,23.89
2019-05-22T03:06:41.910Z,23.89
2019-05-22T03:09:30.085Z,23.89
2019-05-22T03:12:11.576Z,23.89
2019-05-22T03:14:46.473Z,23.89
2019-05-22T03:17:30.412Z,23.89
2019-05-22T03:20:09.334Z,23.89
2019-05-22T03:23:38.063Z,23.88
2019-05-22T03:26:13.516Z,23.89
2019-05-22T03:28:48.289Z,23.89
2019-05-22T03:31:22.558Z,23.89
2019-05-22T03:33:56.551Z,23.89
2019-05-22T03:36:30.426Z,23.88
2019-05-22T03:39:05.812Z,23.89
2019-05-22T03:41:39.531Z,23.89
2019-05-22T03:44:13.897Z,23.89
2019-05-22T03:46:48.614Z,23.89
2019-05-22T03:49:31.230Z,23.88
2019-05-22T03:51:58.594Z,23.88
2019-05-22T03:54:32.713Z,23.88
2019-05-22T03:57:06.975Z,23.88
2019-05-22T03:59:40.737Z,23.87
2019-05-22T04:02:14.799Z,23.87
2019-05-22T04:04:48.550Z,23.88
2019-05-22T04:07:23.913Z,23.87
2019-05-22T04:09:57.611Z,23.88
2019-05-22T04:12:31.793Z,23.89
2019-05-22T04:15:07.863Z,23.88
2019-05-22T04:17:42.927Z,23.88
2019-05-22T04:20:18.174Z,23.87
2019-05-22T04:23:02.104Z,23.87
2019-05-22T04:25:36.516Z,23.87
2019-05-22T04:28:10.103Z,23.87
2019-05-22T04:30:43.950Z,23.87
2019-05-22T04:33:17.733Z,23.87
2019-05-22T04:35:51.823Z,23.87
2019-05-22T04:38:25.711Z,23.87
2019-05-22T04:40:59.933Z,23.86
2019-05-22T04:43:34.951Z,23.87
2019-05-22T04:46:09.869Z,23.87
2019-05-22T04:48:46.125Z,23.87
2019-05-22T04:51:29.234Z,23.86
2019-05-22T04:54:02.828Z,23.87
2019-05-22T04:56:36.665Z,23.86
2019-05-22T04:59:10.482Z,23.86
2019-05-22T05:01:44.097Z,23.86
2019-05-22T05:04:18.215Z,23.87
2019-05-22T05:06:52.385Z,23.87
2019-05-22T05:09:26.533Z,23.87
2019-05-22T05:12:00.385Z,23.87
2019-05-22T05:14:34.106Z,23.88
2019-05-22T05:17:09.420Z,23.87
2019-05-22T05:19:43.175Z,23.88
2019-05-22T05:22:27.284Z,23.87
2019-05-22T05:25:01.082Z,23.87
2019-05-22T05:27:35.269Z,23.86
2019-05-22T05:30:09.106Z,23.87
2019-05-22T05:32:43.211Z,23.90
2019-05-22T05:35:17.677Z,23.93
2019-05-22T05:37:51.779Z,23.93
2019-05-22T05:40:42.927Z,23.93
2019-05-22T05:43:21.342Z,23.94
2019-05-22T05:45:55.059Z,23.92
2019-05-22T05:48:31.546Z,23.93
2019-05-22T05:51:43.116Z,23.92
2019-05-22T05:54:19.233Z,23.92
2019-05-22T05:56:52.985Z,23.93
2019-05-22T05:59:27.787Z,23.93
2019-05-22T06:02:01.657Z,23.93
2019-05-22T06:04:39.574Z,23.94
2019-05-22T06:07:26.420Z,23.94
2019-05-22T06:10:51.061Z,23.94
2019-05-22T06:13:25.482Z,23.97
2019-05-22T06:16:56.203Z,23.95
2019-05-22T06:19:30.617Z,23.94
2019-05-22T06:22:04.418Z,23.96
2019-05-22T06:25:02.163Z,23.96
2019-05-22T06:27:50.350Z,23.96
2019-05-22T06:30:47.872Z,23.94
2019-05-22T06:33:32.932Z,23.94
2019-05-22T06:36:14.964Z,23.97
2019-05-22T06:39:07.827Z,24.00
2019-05-22T06:41:43.037Z,23.97
2019-05-22T06:44:38.449Z,24.01
2019-05-22T06:47:23.506Z,23.88
2019-05-22T06:50:01.588Z,23.93
2019-05-22T06:52:35.425Z,23.94
2019-05-22T06:55:09.380Z,23.95
2019-05-22T06:57:43.764Z,23.96
2019-05-22T07:00:22.955Z,23.95
2019-05-22T07:02:56.760Z,23.94
2019-05-22T07:05:31.332Z,23.85
2019-05-22T07:08:06.053Z,23.83
2019-05-22T07:10:41.637Z,23.80
2019-05-22T07:13:17.078Z,23.81
2019-05-22T07:15:53.947Z,23.79
2019-05-22T07:18:30.793Z,23.85
2019-05-22T07:21:04.958Z,23.91
2019-05-22T07:23:38.676Z,23.94
2019-05-22T07:26:12.749Z,23.95
2019-05-22T07:28:47.554Z,23.97
2019-05-22T07:31:22.143Z,23.97
2019-05-22T07:33:56.125Z,23.97
2019-05-22T07:36:31.642Z,23.98
2019-05-22T07:39:07.167Z,23.98
2019-05-22T07:41:41.229Z,23.94
2019-05-22T07:44:15.089Z,23.96
2019-05-22T07:46:49.971Z,23.97
2019-05-22T07:49:23.977Z,23.97
2019-05-22T07:52:01.584Z,23.97
2019-05-22T07:54:33.394Z,23.97
2019-05-22T07:57:07.382Z,23.97
2019-05-22T07:59:41.235Z,23.97
2019-05-22T08:02:16.640Z,23.97
2019-05-22T08:04:51.096Z,23.95
2019-05-22T08:07:27.520Z,23.95
2019-05-22T08:10:01.283Z,23.95
2019-05-22T08:12:37.622Z,23.96
2019-05-22T08:15:12.627Z,23.95
2019-05-22T08:17:46.421Z,23.96
2019-05-22T08:20:20.190Z,23.96
2019-05-22T08:22:54.750Z,23.97
2019-05-22T08:25:29.689Z,23.97
2019-05-22T08:28:03.591Z,23.71
2019-05-22T08:30:37.380Z,23.73
2019-05-22T08:33:12.092Z,23.83
2019-05-22T08:35:46.490Z,23.88
2019-05-22T08:38:28.545Z,23.54
2019-05-22T08:41:03.230Z,23.51
2019-05-22T08:44:03.189Z,23.74
2019-05-22T08:46:13.264Z,23.83
2019-05-22T08:48:48.872Z,23.85
2019-05-22T08:51:22.759Z,23.85
2019-05-22T08:53:57.490Z,23.85
2019-05-22T08:56:33.494Z,23.85
2019-05-22T08:59:19.071Z,23.83
2019-05-22T09:01:43.359Z,23.84
2019-05-22T09:04:17.195Z,23.86
2019-05-22T09:06:51.086Z,23.89
2019-05-22T09:09:25.335Z,23.91
2019-05-22T09:11:59.212Z,23.90
2019-05-22T09:14:33.738Z,23.90
2019-05-22T09:17:07.675Z,23.91
2019-05-22T09:19:42.288Z,23.89
2019-05-22T09:22:17.353Z,23.91
2019-05-22T09:24:51.730Z,23.93
2019-05-22T09:27:25.822Z,23.93
2019-05-22T09:29:59.777Z,23.94
2019-05-22T09:32:33.781Z,23.94
2019-05-22T09:35:07.753Z,23.94
2019-05-22T09:37:41.802Z,23.94
2019-05-22T09:40:15.632Z,23.94
2019-05-22T09:42:50.155Z,23.94
2019-05-22T09:45:23.926Z,23.93
2019-05-22T09:47:58.031Z,23.95
2019-05-22T09:50:32.282Z,23.93
2019-05-22T09:53:07.246Z,23.93
2019-05-22T09:55:40.919Z,23.93
2019-05-22T09:58:15.080Z,23.92
2019-05-22T10:00:48.884Z,23.58
2019-05-22T10:03:23.420Z,23.71
2019-05-22T10:05:57.445Z,23.79
2019-05-22T10:08:31.448Z,23.07
2019-05-22T10:11:05.509Z,22.73
2019-05-22T10:13:39.555Z,22.25
2019-05-22T10:16:13.628Z,21.87
2019-05-22T10:18:47.484Z,21.75
2019-05-22T10:21:21.885Z,21.73
2019-05-22T10:23:56.215Z,21.74
2019-05-22T10:26:30.147Z,21.82
2019-05-22T10:29:04.282Z,21.60
2019-05-22T10:31:38.221Z,21.64
2019-05-22T10:34:11.963Z,21.72
2019-05-22T10:36:46.493Z,21.52
2019-05-22T10:39:24.490Z,21.54
2019-05-22T10:41:56.472Z,22.46
2019-05-22T10:44:30.162Z,22.89
2019-05-22T10:47:04.580Z,23.09
2019-05-22T10:49:39.980Z,23.19
2019-05-22T10:52:13.961Z,23.25
2019-05-22T10:54:47.989Z,23.30
2019-05-22T10:57:22.460Z,23.35
2019-05-22T10:59:56.408Z,23.13
2019-05-22T11:02:30.266Z,23.32
2019-05-22T11:05:04.348Z,23.39
2019-05-22T11:07:38.212Z,23.43
2019-05-22T11:10:12.345Z,23.43
2019-05-22T11:12:46.613Z,23.48
2019-05-22T11:15:20.472Z,23.49
2019-05-22T11:17:55.988Z,23.50
2019-05-22T11:20:30.261Z,23.08
2019-05-22T11:23:04.375Z,23.28
2019-05-22T11:25:38.092Z,23.09
2019-05-22T11:28:14.630Z,22.96
2019-05-22T11:30:49.785Z,22.74
2019-05-22T11:33:25.301Z,22.49
2019-05-22T11:35:59.353Z,22.49
2019-05-22T11:38:33.173Z,22.22
2019-05-22T11:41:08.009Z,22.24
2019-05-22T11:43:42.050Z,22.31
2019-05-22T11:46:16.410Z,22.16
2019-05-22T11:48:50.425Z,21.92
2019-05-22T11:51:24.196Z,22.38
2019-05-22T11:54:08.714Z,22.91
2019-05-22T11:56:33.423Z,23.14
2019-05-22T11:59:08.115Z,23.23
2019-05-22T12:01:42.714Z,23.13
2019-05-22T12:04:16.710Z,23.25
2019-05-22T12:06:53.674Z,23.33
2019-05-22T12:09:27.349Z,23.23
2019-05-22T12:12:03.497Z,23.33
2019-05-22T12:14:37.396Z,23.36
2019-05-22T12:17:11.721Z,23.38
2019-05-22T12:19:45.368Z,23.40
2019-05-22T12:22:20.080Z,23.42
2019-05-22T12:24:53.986Z,23.42
2019-05-22T12:27:28.368Z,23.43
2019-05-22T12:30:02.286Z,23.43
2019-05-22T12:32:37.595Z,23.43
2019-05-22T12:35:12.600Z,23.47
2019-05-22T12:37:46.246Z,23.47
2019-05-22T12:40:20.400Z,23.48
2019-05-22T12:42:54.519Z,22.96
2019-05-22T12:45:29.067Z,23.17
2019-05-22T12:48:04.448Z,23.38
2019-05-22T12:50:38.754Z,23.47
2019-05-22T12:53:14.724Z,23.46
2019-05-22T12:55:48.807Z,23.44
2019-05-22T12:58:22.722Z,23.47
2019-05-22T13:00:57.035Z,23.48
2019-05-22T13:03:30.914Z,23.50
2019-05-22T13:06:04.983Z,23.51
2019-05-22T13:08:40.329Z,23.50
2019-05-22T13:11:15.057Z,23.51
2019-05-22T13:13:48.757Z,23.52
2019-05-22T13:16:22.932Z,23.55
2019-05-22T13:18:57.153Z,23.55
2019-05-22T13:21:35.350Z,23.56
2019-05-22T13:24:20.359Z,23.53
2019-05-22T13:26:54.056Z,23.53
2019-05-22T13:29:28.523Z,23.53
2019-05-22T13:32:03.334Z,23.54
2019-05-22T13:34:37.102Z,23.55
2019-05-22T13:37:10.919Z,23.54
2019-05-22T13:39:44.665Z,23.05
2019-05-22T13:42:18.521Z,22.65
2019-05-22T13:44:52.803Z,23.07
2019-05-22T13:47:26.447Z,23.32
2019-05-22T13:50:00.131Z,23.43
2019-05-22T13:52:34.790Z,23.47
2019-05-22T13:55:09.982Z,23.48
2019-05-22T13:57:43.735Z,23.50
2019-05-22T14:00:19.216Z,23.52
2019-05-22T14:02:53.097Z,23.46
2019-05-22T14:05:29.654Z,23.54
2019-05-22T14:08:03.492Z,23.54
2019-05-22T14:10:37.395Z,23.53
2019-05-22T14:13:11.178Z,23.55
2019-05-22T14:15:55.825Z,23.54
2019-05-22T14:18:20.674Z,23.59
2019-05-22T14:20:54.495Z,23.58
2019-05-22T14:23:28.369Z,23.57
2019-05-22T14:26:02.554Z,23.56
2019-05-22T14:28:36.289Z,23.55
2019-05-22T14:31:09.999Z,23.57
2019-05-22T14:33:43.756Z,23.56
2019-05-22T14:36:17.509Z,23.56
2019-05-22T14:38:51.309Z,23.58
2019-05-22T14:41:25.032Z,23.59
2019-05-22T14:43:58.813Z,23.59
2019-05-22T14:46:32.971Z,23.60
2019-05-22T14:49:06.779Z,23.61
2019-05-22T14:51:40.520Z,23.63
2019-05-22T14:54:14.998Z,23.48
2019-05-22T14:56:48.923Z,23.50
2019-05-22T14:59:22.792Z,23.55
2019-05-22T15:01:56.664Z,23.58
2019-05-22T15:04:31.525Z,23.57
2019-05-22T15:07:05.998Z,23.58
2019-05-22T15:09:39.617Z,23.59
2019-05-22T15:12:13.236Z,23.59
2019-05-22T15:14:47.998Z,23.60
2019-05-22T15:17:32.632Z,23.59
2019-05-22T15:19:57.371Z,23.60
2019-05-22T15:22:32.168Z,23.60
2019-05-22T15:25:08.020Z,23.62
2019-05-22T15:27:42.021Z,23.60
2019-05-22T15:30:15.820Z,23.60
2019-05-22T15:32:49.437Z,23.60
2019-05-22T15:35:23.253Z,23.58
2019-05-22T15:37:57.111Z,23.59
2019-05-22T15:40:31.571Z,23.62
2019-05-22T15:43:06.070Z,23.61
2019-05-22T15:45:40.383Z,23.60
2019-05-22T15:48:19.689Z,23.60
2019-05-22T15:50:53.720Z,23.60
2019-05-22T15:53:27.839Z,23.60
2019-05-22T15:56:03.406Z,23.60
2019-05-22T15:58:39.169Z,23.61
2019-05-22T16:01:13.157Z,23.62
2019-05-22T16:03:47.967Z,23.61
2019-05-22T16:06:22.827Z,23.60
2019-05-22T16:08:56.641Z,23.60
2019-05-22T16:11:31.612Z,23.58
2019-05-22T16:14:06.497Z,23.52
2019-05-22T16:16:41.931Z,23.55
2019-05-22T16:19:16.341Z,23.60
2019-05-22T16:21:50.342Z,23.62
2019-05-22T16:24:24.040Z,23.63
2019-05-22T16:26:58.405Z,23.62
2019-05-22T16:29:32.598Z,23.64
2019-05-22T16:32:06.247Z,23.63
2019-05-22T16:34:41.645Z,23.63
2019-05-22T16:37:15.717Z,23.70
2019-05-22T16:39:50.680Z,23.70
2019-05-22T16:42:24.379Z,23.69
2019-05-22T16:44:58.223Z,23.68
2019-05-22T16:47:33.627Z,23.67
2019-05-22T16:50:08.249Z,23.66
2019-05-22T16:52:43.048Z,23.64
2019-05-22T16:55:17.236Z,23.62
2019-05-22T16:57:50.944Z,23.65
2019-05-22T17:00:24.980Z,23.67
2019-05-22T17:02:58.709Z,23.66
2019-05-22T17:05:33.011Z,23.68
2019-05-22T17:08:07.145Z,23.67
2019-05-22T17:10:41.927Z,23.66
2019-05-22T17:13:16.749Z,23.66
2019-05-22T17:15:50.413Z,23.63
2019-05-22T17:18:24.668Z,23.65
2019-05-22T17:20:59.292Z,23.67
2019-05-22T17:23:33.155Z,23.66
2019-05-22T17:26:07.358Z,23.64
2019-05-22T17:28:41.013Z,23.64
2019-05-22T17:31:15.006Z,23.63
2019-05-22T17:33:50.281Z,23.62
2019-05-22T17:36:27.630Z,23.62
2019-05-22T17:39:02.398Z,23.61
2019-05-22T17:41:36.706Z,23.65
2019-05-22T17:44:10.464Z,23.63
2019-05-22T17:46:44.757Z,23.62
2019-05-22T17:49:18.776Z,23.63
2019-05-22T17:51:52.813Z,23.64
2019-05-22T17:54:26.603Z,23.66
2019-05-22T17:57:00.851Z,23.66
2019-05-22T17:59:34.870Z,23.63
2019-05-22T18:02:10.964Z,23.62
2019-05-22T18:04:44.833Z,23.61
2019-05-22T18:07:18.667Z,23.64
2019-05-22T18:09:52.419Z,23.62
2019-05-22T18:12:27.239Z,23.65
2019-05-22T18:15:01.192Z,23.65
2019-05-22T18:17:36.105Z,23.66
2019-05-22T18:20:11.448Z,23.67
2019-05-22T18:22:45.674Z,23.67
2019-05-22T18:25:20.061Z,23.64
2019-05-22T18:27:54.710Z,23.64
2019-05-22T18:30:30.153Z,23.65
2019-05-22T18:33:03.872Z,23.64
2019-05-22T18:35:37.620Z,23.65
2019-05-22T18:38:12.227Z,23.63
2019-05-22T18:40:47.681Z,23.63
2019-05-22T18:43:23.132Z,23.62
2019-05-22T18:45:57.655Z,23.60
2019-05-22T18:48:33.181Z,23.63
2019-05-22T18:51:07.623Z,23.64
2019-05-22T18:53:41.727Z,23.63
2019-05-22T18:56:15.484Z,23.63
2019-05-22T18:58:49.631Z,23.63
2019-05-22T19:01:23.773Z,23.63
2019-05-22T19:03:57.549Z,23.66
2019-05-22T19:06:31.282Z,23.64
2019-05-22T19:09:05.869Z,23.64
2019-05-22T19:11:40.171Z,23.63
2019-05-22T19:14:14.494Z,23.64
2019-05-22T19:16:48.356Z,23.62
2019-05-22T19:19:22.437Z,23.62
2019-05-22T19:21:56.184Z,23.64
2019-05-22T19:24:29.952Z,23.66
2019-05-22T19:27:03.753Z,23.64
2019-05-22T19:29:37.508Z,23.63
2019-05-22T19:32:11.661Z,23.61
2019-05-22T19:34:45.379Z,23.62
2019-05-22T19:37:19.435Z,23.63
2019-05-22T19:39:53.260Z,23.63
2019-05-22T19:42:28.664Z,23.62
2019-05-22T19:45:03.823Z,23.63
2019-05-22T19:47:38.195Z,23.62
2019-05-22T19:50:22.713Z,23.62
2019-05-22T19:52:48.300Z,23.63
2019-05-22T19:55:24.174Z,23.64
2019-05-22T19:57:58.240Z,23.63
2019-05-22T20:00:33.644Z,23.64
2019-05-22T20:03:07.768Z,23.63
2019-05-22T20:05:41.735Z,23.64
2019-05-22T20:08:15.514Z,23.64
2019-05-22T20:10:52.505Z,23.64
2019-05-22T20:13:27.319Z,23.65
2019-05-22T20:16:01.055Z,23.64
2019-05-22T20:18:35.084Z,23.63
2019-05-22T20:21:09.287Z,23.63
2019-05-22T20:23:45.219Z,23.63
2019-05-22T20:26:19.323Z,23.66
2019-05-22T20:28:54.134Z,23.68
2019-05-22T20:31:28.633Z,23.66
2019-05-22T20:34:02.839Z,23.64
2019-05-22T20:36:36.598Z,23.64
2019-05-22T20:39:12.017Z,23.64
2019-05-22T20:41:46.127Z,23.65
2019-05-22T20:44:25.251Z,23.64
2019-05-22T20:46:58.996Z,23.63
2019-05-22T20:49:33.469Z,23.63
2019-05-22T20:52:10.901Z,23.64
2019-05-22T20:54:45.209Z,23.64
2019-05-22T20:57:21.532Z,23.64
2019-05-22T20:59:55.889Z,23.63
2019-05-22T21:02:30.126Z,23.63
2019-05-22T21:05:05.596Z,23.64
2019-05-22T21:07:46.225Z,23.63
2019-05-22T21:10:22.431Z,23.62
2019-05-22T21:12:56.991Z,23.62
2019-05-22T21:15:32.966Z,23.62
2019-05-22T21:18:07.463Z,23.62
2019-05-22T21:20:54.173Z,23.60
2019-05-22T21:23:18.373Z,23.61
2019-05-22T21:25:52.311Z,23.61
2019-05-22T21:28:26.225Z,23.60
2019-05-22T21:30:59.997Z,23.60
2019-05-22T21:33:33.905Z,23.60
2019-05-22T21:36:09.513Z,23.60
2019-05-22T21:38:43.155Z,23.61
2019-05-22T21:41:17.412Z,23.60
2019-05-22T21:43:51.346Z,23.59
2019-05-22T21:46:25.437Z,23.60
2019-05-22T21:48:59.434Z,23.62
2019-05-22T21:51:34.608Z,23.59
2019-05-22T21:54:08.890Z,23.59
2019-05-22T21:56:43.329Z,23.59
2019-05-22T21:59:17.037Z,23.59
2019-05-22T22:01:55.729Z,23.59
2019-05-22T22:04:35.098Z,23.59
2019-05-22T22:07:09.523Z,23.59
2019-05-22T22:09:44.407Z,23.58
2019-05-22T22:12:20.967Z,23.57
2019-05-22T22:14:54.893Z,23.57
2019-05-22T22:17:30.263Z,23.58
2019-05-22T22:20:04.775Z,23.59
2019-05-22T22:22:38.795Z,23.59
2019-05-22T22:25:14.696Z,23.59
2019-05-22T22:27:49.131Z,23.59
2019-05-22T22:30:29.562Z,23.59
2019-05-22T22:33:08.065Z,23.58
2019-05-22T22:35:42.051Z,23.58
2019-05-22T22:38:15.971Z,23.56
2019-05-22T22:40:50.045Z,23.57
2019-05-22T22:43:24.691Z,23.57
2019-05-22T22:46:17.267Z,23.57
2019-05-22T22:48:53.351Z,23.56
2019-05-22T22:51:27.455Z,23.56
2019-05-22T22:54:01.315Z,23.56
2019-05-22T22:56:35.401Z,23.58
2019-05-22T22:59:09.530Z,23.57
2019-05-22T23:01:44.577Z,23.57
2019-05-22T23:04:18.536Z,23.56
2019-05-22T23:06:52.825Z,23.56
2019-05-22T23:09:28.310Z,23.56
2019-05-22T23:12:03.209Z,23.56
2019-05-22T23:14:38.489Z,23.56
2019-05-22T23:17:13.148Z,23.56
2019-05-22T23:19:45.929Z,23.55
2019-05-22T23:22:19.739Z,23.55
2019-05-22T23:24:56.091Z,23.55
2019-05-22T23:27:31.612Z,23.55
2019-05-22T23:30:06.781Z,23.55
2019-05-22T23:32:42.376Z,23.54
2019-05-22T23:35:16.523Z,23.55
2019-05-22T23:37:50.437Z,23.55
2019-05-22T23:40:28.557Z,23.54
2019-05-22T23:43:03.718Z,23.54
2019-05-22T23:45:37.588Z,23.55
2019-05-22T23:48:14.817Z,23.54
2019-05-22T23:50:50.148Z,23.54
2019-05-22T23:53:25.203Z,23.54
2019-05-22T23:55:58.960Z,23.53
2019-05-22T23:58:34.744Z,23.53
